Tuesday, September 30, 2014

  Over 45,111,151 pages visited!

GMT:
19:51
PACIFIC:
12:51:48 PM
MOUNTAIN:
1:51:48 PM

CENTRAL:
2:51:48 PM

EASTERN:
3:51:48 PM
ATLANTIC:
4:51:48 PM
NEWFOUNDLAND:
5:21:48 PM
 

 


Watches/Warnings
Current Conditions
Radar/Satellite
Lightning Images


Current Weather Conditions For TORONTO PEARSON,ON

 


Mostly Cloudy
 

Temperature: 18C / 64F
Dew Point: 15 C / 59F
Humidity: 83 %
Pressure: 1013.1 mbs (29.92 inches)
Visibility: 12.9 kms (8 SM)
Wind Direction: ESE (120)
Wind Speed: 11.1 Km/h (6.9 MPH)
Max Wind Gust: No Gusts
Humidex: N/A
WindChill: N/A
    

Observation Information

Date/Time: Tuesday, September 30, 2014 @ 19:00Z
Local Time:
Metar Coded: CYYZ 301900Z 12006KT 8SM BKN011 OVC075 18/15 A2992 RMK SC5AC3 SLP131 DENSITY ALT 1000FT

 

 

                   1997-2014 The Ontario Weather Page